createdAt,value
2019-04-16T00:00:21.736Z,1014.14
2019-04-16T00:00:48.589Z,1014.19
2019-04-16T00:01:15.702Z,1014.14
2019-04-16T00:01:44.387Z,1014.13
2019-04-16T00:02:08.987Z,1014.17
2019-04-16T00:02:36.084Z,1014.15
2019-04-16T00:03:03.185Z,1014.13
2019-04-16T00:03:30.287Z,1014.12
2019-04-16T00:03:57.409Z,1014.13
2019-04-16T00:04:24.950Z,1014.13
2019-04-16T00:04:50.590Z,1014.14
2019-04-16T00:05:17.687Z,1014.09
2019-04-16T00:05:44.791Z,1014.1
2019-04-16T00:06:11.930Z,1014.1
2019-04-16T00:06:38.030Z,1014.11
2019-04-16T00:07:04.170Z,1014.07
2019-04-16T00:07:30.275Z,1014.11
2019-04-16T00:07:56.418Z,1014.14
2019-04-16T00:08:27.543Z,1014.11
2019-04-16T00:08:54.107Z,1014.11
2019-04-16T00:09:18.740Z,1014.08
2019-04-16T00:09:44.904Z,1014.11
2019-04-16T00:10:11.065Z,1014.12
2019-04-16T00:10:37.174Z,1014.11
2019-04-16T00:11:03.276Z,1014.11
2019-04-16T00:11:29.377Z,1014.08
2019-04-16T00:11:55.520Z,1014.06
2019-04-16T00:12:21.628Z,1014.08
2019-04-16T00:12:47.742Z,1014
2019-04-16T00:13:13.873Z,1014.06
2019-04-16T00:13:39.988Z,1014.04
2019-04-16T00:14:07.260Z,1014.06
2019-04-16T00:14:33.324Z,1014.02
2019-04-16T00:14:59.437Z,1014.04
2019-04-16T00:15:25.571Z,1014.04
2019-04-16T00:15:52.487Z,1013.97
2019-04-16T00:16:19.582Z,1013.99
2019-04-16T00:16:46.708Z,1014
2019-04-16T00:17:13.136Z,1014.02
2019-04-16T00:17:39.921Z,1014.05
2019-04-16T00:18:07.016Z,1014
2019-04-16T00:18:34.147Z,1014.01
2019-04-16T00:19:05.537Z,1013.95
2019-04-16T00:19:30.346Z,1013.97
2019-04-16T00:19:56.512Z,1013.99
2019-04-16T00:20:23.643Z,1013.96
2019-04-16T00:20:50.764Z,1013.97
2019-04-16T00:21:17.977Z,1013.94
2019-04-16T00:21:45.073Z,1014
2019-04-16T00:22:12.446Z,1013.93
2019-04-16T00:22:38.310Z,1013.9
2019-04-16T00:23:04.419Z,1013.95
2019-04-16T00:23:30.522Z,1013.92
2019-04-16T00:23:57.319Z,1013.94
2019-04-16T00:24:24.456Z,1013.91
2019-04-16T00:24:50.615Z,1013.96
2019-04-16T00:25:16.727Z,1013.92
2019-04-16T00:25:42.833Z,1013.92
2019-04-16T00:26:09.931Z,1013.94
2019-04-16T00:26:37.025Z,1013.94
2019-04-16T00:27:04.153Z,1013.92
2019-04-16T00:27:30.284Z,1013.92
2019-04-16T00:27:59.474Z,1013.91
2019-04-16T00:28:23.633Z,1013.91
2019-04-16T00:28:50.737Z,1013.88
2019-04-16T00:29:17.832Z,1013.87
2019-04-16T00:29:45.177Z,1013.85
2019-04-16T00:30:12.277Z,1013.84
2019-04-16T00:30:39.375Z,1013.86
2019-04-16T00:31:05.589Z,1013.81
2019-04-16T00:31:34.260Z,1013.85
2019-04-16T00:31:59.104Z,1013.86
2019-04-16T00:32:26.087Z,1013.83
2019-04-16T00:32:53.106Z,1013.84
2019-04-16T00:33:20.197Z,1013.82
2019-04-16T00:33:47.302Z,1013.84
2019-04-16T00:34:14.396Z,1013.8
2019-04-16T00:34:44.451Z,1013.82
2019-04-16T00:35:07.649Z,1013.82
2019-04-16T00:35:33.807Z,1013.84
2019-04-16T00:36:01.159Z,1013.83
2019-04-16T00:36:28.267Z,1013.88
2019-04-16T00:36:54.618Z,1013.88
2019-04-16T00:37:21.552Z,1013.87
2019-04-16T00:37:51.334Z,1013.86
2019-04-16T00:38:14.001Z,1013.84
2019-04-16T00:38:42.118Z,1013.79
2019-04-16T00:39:09.220Z,1013.86
2019-04-16T00:39:36.065Z,1013.84
2019-04-16T00:40:02.493Z,1013.87
2019-04-16T00:40:29.663Z,1013.84
2019-04-16T00:40:55.772Z,1013.87
2019-04-16T00:41:21.898Z,1013.86
2019-04-16T00:41:48.039Z,1013.87
2019-04-16T00:42:14.172Z,1013.85
2019-04-16T00:42:40.285Z,1013.84
2019-04-16T00:43:06.416Z,1013.86
2019-04-16T00:43:32.530Z,1013.85
2019-04-16T00:43:58.688Z,1013.85
2019-04-16T00:44:24.796Z,1013.87
2019-04-16T00:44:50.906Z,1013.85
2019-04-16T00:45:17.013Z,1013.83
2019-04-16T00:45:43.122Z,1013.81
2019-04-16T00:46:11.432Z,1013.89
2019-04-16T00:46:36.354Z,1013.82
2019-04-16T00:47:02.463Z,1013.84
2019-04-16T00:47:28.568Z,1013.85
2019-04-16T00:47:55.691Z,1013.83
2019-04-16T00:48:21.770Z,1013.85
2019-04-16T00:48:47.886Z,1013.84
2019-04-16T00:49:13.994Z,1013.81
2019-04-16T00:49:42.081Z,1013.84
2019-04-16T00:50:09.185Z,1013.86
2019-04-16T00:50:35.289Z,1013.83
2019-04-16T00:51:01.403Z,1013.8
2019-04-16T00:51:27.507Z,1013.89
2019-04-16T00:51:53.617Z,1013.8
2019-04-16T00:52:20.711Z,1013.84
2019-04-16T00:52:46.835Z,1013.84
2019-04-16T00:53:13.962Z,1013.86
2019-04-16T00:53:40.099Z,1013.87
2019-04-16T00:54:09.646Z,1013.86
2019-04-16T00:54:33.361Z,1013.86
2019-04-16T00:55:00.461Z,1013.84
2019-04-16T00:55:27.556Z,1013.85
2019-04-16T00:55:54.650Z,1013.79
2019-04-16T00:56:20.897Z,1013.8
2019-04-16T00:56:47.996Z,1013.85
2019-04-16T00:57:17.622Z,1013.82
2019-04-16T00:57:41.227Z,1013.8
2019-04-16T00:58:08.579Z,1013.8
2019-04-16T00:58:35.633Z,1013.81
2019-04-16T00:59:02.736Z,1013.8
2019-04-16T00:59:29.825Z,1013.79
2019-04-16T00:59:57.025Z,1013.74
2019-04-16T01:00:23.117Z,1013.8
2019-04-16T01:00:50.210Z,1013.76
2019-04-16T01:01:16.317Z,1013.76
2019-04-16T01:01:42.427Z,1013.75
2019-04-16T01:02:08.827Z,1013.77
2019-04-16T01:02:34.923Z,1013.79
2019-04-16T01:03:01.056Z,1013.76
2019-04-16T01:03:27.162Z,1013.71
2019-04-16T01:03:53.271Z,1013.76
2019-04-16T01:04:19.562Z,1013.72
2019-04-16T01:04:45.674Z,1013.76
2019-04-16T01:05:11.790Z,1013.75
2019-04-16T01:05:38.944Z,1013.75
2019-04-16T01:06:07.746Z,1013.74
2019-04-16T01:06:32.151Z,1013.75
2019-04-16T01:06:58.378Z,1013.75
2019-04-16T01:07:24.561Z,1013.78
2019-04-16T01:07:50.672Z,1013.78
2019-04-16T01:08:16.776Z,1013.81
2019-04-16T01:08:53.790Z,1013.76
2019-04-16T01:09:10.999Z,1013.74
2019-04-16T01:09:37.130Z,1013.79
2019-04-16T01:10:03.238Z,1013.78
2019-04-16T01:10:29.354Z,1013.75
2019-04-16T01:10:55.458Z,1013.72
2019-04-16T01:11:21.564Z,1013.75
2019-04-16T01:11:48.831Z,1013.8
2019-04-16T01:12:14.805Z,1013.76
2019-04-16T01:12:40.936Z,1013.75
2019-04-16T01:13:07.194Z,1013.78
2019-04-16T01:13:34.279Z,1013.7
2019-04-16T01:14:01.375Z,1013.73
2019-04-16T01:14:28.478Z,1013.74
2019-04-16T01:14:58.654Z,1013.73
2019-04-16T01:15:22.183Z,1013.7
2019-04-16T01:15:49.280Z,1013.75
2019-04-16T01:16:16.403Z,1013.69
2019-04-16T01:16:43.502Z,1013.69
2019-04-16T01:17:10.983Z,1013.71
2019-04-16T01:17:37.116Z,1013.65
2019-04-16T01:18:04.511Z,1013.67
2019-04-16T01:18:30.318Z,1013.69
2019-04-16T01:18:57.413Z,1013.68
2019-04-16T01:19:24.546Z,1013.66
2019-04-16T01:19:51.641Z,1013.64
2019-04-16T01:20:18.833Z,1013.61
2019-04-16T01:20:44.967Z,1013.64
2019-04-16T01:21:13.699Z,1013.65
2019-04-16T01:21:38.169Z,1013.64
2019-04-16T01:22:05.264Z,1013.65
2019-04-16T01:22:32.327Z,1013.66
2019-04-16T01:22:59.423Z,1013.65
2019-04-16T01:23:26.523Z,1013.65
2019-04-16T01:23:53.624Z,1013.59
2019-04-16T01:24:20.197Z,1013.57
2019-04-16T01:24:46.504Z,1013.6
2019-04-16T01:25:13.486Z,1013.6
2019-04-16T01:25:40.591Z,1013.57
2019-04-16T01:26:07.843Z,1013.59
2019-04-16T01:26:34.937Z,1013.6
2019-04-16T01:27:02.059Z,1013.58
2019-04-16T01:27:28.682Z,1013.57
2019-04-16T01:27:59.608Z,1013.56
2019-04-16T01:28:22.411Z,1013.55
2019-04-16T01:28:49.508Z,1013.54
2019-04-16T01:29:16.639Z,1013.54
2019-04-16T01:29:43.738Z,1013.55
2019-04-16T01:30:10.987Z,1013.57
2019-04-16T01:30:38.080Z,1013.54
2019-04-16T01:31:06.877Z,1013.54
2019-04-16T01:31:31.278Z,1013.58
2019-04-16T01:31:58.373Z,1013.55
2019-04-16T01:32:25.466Z,1013.59
2019-04-16T01:32:52.566Z,1013.57
2019-04-16T01:33:19.694Z,1013.56
2019-04-16T01:33:46.575Z,1013.56
2019-04-16T01:34:15.227Z,1013.56
2019-04-16T01:34:40.002Z,1013.57
2019-04-16T01:35:07.103Z,1013.58
2019-04-16T01:35:34.203Z,1013.59
2019-04-16T01:36:01.299Z,1013.57
2019-04-16T01:36:28.397Z,1013.56
2019-04-16T01:36:54.950Z,1013.58
2019-04-16T01:37:25.474Z,1013.58
2019-04-16T01:37:48.169Z,1013.53
2019-04-16T01:38:14.343Z,1013.55
2019-04-16T01:38:41.467Z,1013.49
2019-04-16T01:39:17.056Z,1013.57
2019-04-16T01:39:37.642Z,1013.56
2019-04-16T01:40:05.013Z,1013.54
2019-04-16T01:40:32.071Z,1013.52
2019-04-16T01:40:59.195Z,1013.55
2019-04-16T01:41:26.290Z,1013.53
2019-04-16T01:41:53.308Z,1013.53
2019-04-16T01:42:23.087Z,1013.53
2019-04-16T01:42:46.577Z,1013.54
2019-04-16T01:43:13.675Z,1013.53
2019-04-16T01:43:40.792Z,1013.56
2019-04-16T01:44:06.931Z,1013.51
2019-04-16T01:44:34.032Z,1013.53
2019-04-16T01:45:01.155Z,1013.52
2019-04-16T01:45:29.685Z,1013.51
2019-04-16T01:45:54.363Z,1013.54
2019-04-16T01:46:21.460Z,1013.54
2019-04-16T01:46:47.593Z,1013.52
2019-04-16T01:47:13.736Z,1013.53
2019-04-16T01:47:40.832Z,1013.51
2019-04-16T01:48:08.301Z,1013.54
2019-04-16T01:48:38.576Z,1013.51
2019-04-16T01:49:01.507Z,1013.59
2019-04-16T01:49:28.636Z,1013.53
2019-04-16T01:49:54.769Z,1013.53
2019-04-16T01:50:21.857Z,1013.53
2019-04-16T01:50:48.955Z,1013.53
2019-04-16T01:51:16.230Z,1013.51
2019-04-16T01:51:44.537Z,1013.5
2019-04-16T01:52:10.247Z,1013.53
2019-04-16T01:52:37.353Z,1013.51
2019-04-16T01:53:04.546Z,1013.52
2019-04-16T01:53:31.583Z,1013.54
2019-04-16T01:53:58.691Z,1013.53
2019-04-16T01:54:25.821Z,1013.51
2019-04-16T01:54:54.755Z,1013.47
2019-04-16T01:55:19.059Z,1013.52
2019-04-16T01:55:46.189Z,1013.44
2019-04-16T01:56:13.261Z,1013.46
2019-04-16T01:56:39.590Z,1013.45
2019-04-16T01:57:06.778Z,1013.48
2019-04-16T01:57:32.866Z,1013.49
2019-04-16T01:57:59.421Z,1013.47
2019-04-16T01:58:26.069Z,1013.42
2019-04-16T01:58:53.184Z,1013.43
2019-04-16T01:59:20.312Z,1013.44
2019-04-16T01:59:46.892Z,1013.47
2019-04-16T02:00:14.060Z,1013.43
2019-04-16T02:00:41.161Z,1013.43
2019-04-16T02:01:08.003Z,1013.4
2019-04-16T02:01:34.382Z,1013.39
2019-04-16T02:02:01.506Z,1013.41
2019-04-16T02:02:28.628Z,1013.43
2019-04-16T02:02:55.726Z,1013.4
2019-04-16T02:03:22.820Z,1013.4
2019-04-16T02:03:49.956Z,1013.38
2019-04-16T02:04:19.491Z,1013.4
2019-04-16T02:04:42.215Z,1013.38
2019-04-16T02:05:09.656Z,1013.42
2019-04-16T02:05:36.748Z,1013.37
2019-04-16T02:06:03.843Z,1013.4
2019-04-16T02:06:30.942Z,1013.41
2019-04-16T02:06:58.047Z,1013.4
2019-04-16T02:07:27.611Z,1013.41
2019-04-16T02:07:51.366Z,1013.38
2019-04-16T02:08:18.462Z,1013.36
2019-04-16T02:08:45.577Z,1013.38
2019-04-16T02:09:22.232Z,1013.37
2019-04-16T02:09:40.984Z,1013.42
2019-04-16T02:10:08.159Z,1013.41
2019-04-16T02:10:35.373Z,1013.4
2019-04-16T02:11:01.514Z,1013.37
2019-04-16T02:11:28.606Z,1013.37
2019-04-16T02:11:55.706Z,1013.38
2019-04-16T02:12:22.791Z,1013.37
2019-04-16T02:12:49.679Z,1013.38
2019-04-16T02:13:16.775Z,1013.44
2019-04-16T02:13:45.733Z,1013.38
2019-04-16T02:14:10.007Z,1013.38
2019-04-16T02:14:37.135Z,1013.38
2019-04-16T02:15:04.263Z,1013.36
2019-04-16T02:15:31.418Z,1013.38
2019-04-16T02:15:58.547Z,1013.35
2019-04-16T02:16:25.139Z,1013.36
2019-04-16T02:16:55.653Z,1013.35
2019-04-16T02:17:17.606Z,1013.35
2019-04-16T02:17:44.696Z,1013.33
2019-04-16T02:18:11.792Z,1013.33
2019-04-16T02:18:37.925Z,1013.38
2019-04-16T02:19:05.026Z,1013.35
2019-04-16T02:19:32.804Z,1013.34
2019-04-16T02:19:58.254Z,1013.34
2019-04-16T02:20:25.372Z,1013.32
2019-04-16T02:20:52.471Z,1013.36
2019-04-16T02:21:19.596Z,1013.28
2019-04-16T02:21:46.740Z,1013.36
2019-04-16T02:22:14.055Z,1013.37
2019-04-16T02:22:42.205Z,1013.29
2019-04-16T02:23:07.261Z,1013.34
2019-04-16T02:23:34.315Z,1013.32
2019-04-16T02:24:01.418Z,1013.32
2019-04-16T02:24:28.513Z,1013.31
2019-04-16T02:24:54.629Z,1013.35
2019-04-16T02:25:21.903Z,1013.34
2019-04-16T02:25:48.397Z,1013.32
2019-04-16T02:26:15.141Z,1013.3
2019-04-16T02:26:41.279Z,1013.29
2019-04-16T02:27:08.561Z,1013.3
2019-04-16T02:27:34.642Z,1013.29
2019-04-16T02:28:01.743Z,1013.29
2019-04-16T02:28:29.044Z,1013.31
2019-04-16T02:28:56.409Z,1013.31
2019-04-16T02:29:22.248Z,1013.3
2019-04-16T02:29:49.345Z,1013.24
2019-04-16T02:30:16.479Z,1013.29
2019-04-16T02:30:44.559Z,1013.3
2019-04-16T02:31:15.222Z,1013.27
2019-04-16T02:31:39.054Z,1013.32
2019-04-16T02:32:07.206Z,1013.29
2019-04-16T02:32:33.349Z,1013.29
2019-04-16T02:32:59.502Z,1013.3
2019-04-16T02:33:25.612Z,1013.3
2019-04-16T02:33:51.744Z,1013.32
2019-04-16T02:34:18.232Z,1013.26
2019-04-16T02:34:44.403Z,1013.28
2019-04-16T02:35:11.146Z,1013.3
2019-04-16T02:35:37.315Z,1013.29
2019-04-16T02:36:03.445Z,1013.26
2019-04-16T02:36:29.850Z,1013.26
2019-04-16T02:37:00.256Z,1013.29
2019-04-16T02:37:23.103Z,1013.29
2019-04-16T02:37:50.252Z,1013.3
2019-04-16T02:38:17.365Z,1013.28
2019-04-16T02:38:50.021Z,1013.3
2019-04-16T02:39:10.835Z,1013.31
2019-04-16T02:39:48.908Z,1013.26
2019-04-16T02:40:07.980Z,1013.26
2019-04-16T02:40:35.152Z,1013.28
2019-04-16T02:41:02.360Z,1013.27
2019-04-16T02:41:28.652Z,1013.28
2019-04-16T02:41:58.048Z,1013.27
2019-04-16T02:42:20.967Z,1013.27
2019-04-16T02:42:48.102Z,1013.23
2019-04-16T02:43:16.288Z,1013.27
2019-04-16T02:43:43.412Z,1013.34
2019-04-16T02:44:13.958Z,1013.24
2019-04-16T02:44:36.690Z,1013.24
2019-04-16T02:45:03.863Z,1013.19
2019-04-16T02:45:29.990Z,1013.3
2019-04-16T02:45:58.649Z,1013.23
2019-04-16T02:46:23.274Z,1013.28
2019-04-16T02:46:49.462Z,1013.22
2019-04-16T02:47:17.585Z,1013.32
2019-04-16T02:47:45.730Z,1013.26
2019-04-16T02:48:16.553Z,1013.22
2019-04-16T02:48:38.963Z,1013.22
2019-04-16T02:49:07.074Z,1013.25
2019-04-16T02:49:34.400Z,1013.25
2019-04-16T02:50:01.549Z,1013.22
2019-04-16T02:50:31.861Z,1013.26
2019-04-16T02:50:54.757Z,1013.25
2019-04-16T02:51:22.868Z,1013.23
2019-04-16T02:51:49.060Z,1013.23
2019-04-16T02:52:17.276Z,1013.18
2019-04-16T02:52:42.658Z,1013.25
2019-04-16T02:53:09.783Z,1013.2
2019-04-16T02:53:36.916Z,1013.25
2019-04-16T02:54:04.033Z,1013.2
2019-04-16T02:54:33.690Z,1013.21
2019-04-16T02:54:57.796Z,1013.21
2019-04-16T02:55:24.956Z,1013.19
2019-04-16T02:55:52.070Z,1013.26
2019-04-16T02:56:19.388Z,1013.19
2019-04-16T02:56:51.461Z,1013.16
2019-04-16T02:57:12.971Z,1013.21
2019-04-16T02:57:39.182Z,1013.19
2019-04-16T02:58:05.496Z,1013.19
2019-04-16T02:58:34.274Z,1013.17
2019-04-16T02:58:58.800Z,1013.16
2019-04-16T02:59:25.930Z,1013.14
2019-04-16T02:59:53.182Z,1013.11
2019-04-16T03:00:20.271Z,1013.15
2019-04-16T03:00:49.570Z,1013.15
2019-04-16T03:01:13.475Z,1013.15
2019-04-16T03:01:40.607Z,1013.1
2019-04-16T03:02:07.705Z,1013.14
2019-04-16T03:02:34.806Z,1013.16
2019-04-16T03:03:00.990Z,1013.21
2019-04-16T03:03:27.506Z,1013.12
2019-04-16T03:03:56.177Z,1013.14
2019-04-16T03:04:20.713Z,1013.16
2019-04-16T03:04:47.840Z,1013.14
2019-04-16T03:05:14.602Z,1013.17
2019-04-16T03:05:41.697Z,1013.13
2019-04-16T03:06:07.874Z,1013.14
2019-04-16T03:06:34.943Z,1013.12
2019-04-16T03:07:03.044Z,1013.11
2019-04-16T03:07:28.175Z,1013.1
2019-04-16T03:07:54.363Z,1013.1
2019-04-16T03:08:21.478Z,1013.11
2019-04-16T03:08:48.579Z,1013.02
2019-04-16T03:09:15.702Z,1013.06
2019-04-16T03:09:42.794Z,1013.01
2019-04-16T03:10:13.027Z,1013.1
2019-04-16T03:10:38.158Z,1012.99
2019-04-16T03:11:04.325Z,1013.07
2019-04-16T03:11:31.425Z,1013
2019-04-16T03:11:58.519Z,1013.01
2019-04-16T03:12:25.748Z,1012.99
2019-04-16T03:12:52.832Z,1013
2019-04-16T03:13:22.967Z,1012.95
2019-04-16T03:13:45.105Z,1012.96
2019-04-16T03:14:13.190Z,1012.98
2019-04-16T03:14:40.286Z,1012.94
2019-04-16T03:15:07.412Z,1012.96
2019-04-16T03:15:34.503Z,1012.95
2019-04-16T03:16:02.548Z,1012.93
2019-04-16T03:16:28.542Z,1012.94
2019-04-16T03:16:55.634Z,1012.9
2019-04-16T03:17:22.739Z,1012.94
2019-04-16T03:17:49.840Z,1012.93
2019-04-16T03:18:16.928Z,1012.96
2019-04-16T03:18:46.743Z,1012.91
2019-04-16T03:19:10.137Z,1012.95
2019-04-16T03:19:38.856Z,1012.95
2019-04-16T03:20:04.357Z,1012.93
2019-04-16T03:20:31.486Z,1012.92
2019-04-16T03:20:58.663Z,1012.9
2019-04-16T03:21:27.361Z,1012.92
2019-04-16T03:21:51.826Z,1012.89
2019-04-16T03:22:19.364Z,1012.89
2019-04-16T03:22:46.346Z,1012.89
2019-04-16T03:23:12.478Z,1012.91
2019-04-16T03:23:39.580Z,1012.87
2019-04-16T03:24:09.039Z,1012.9
2019-04-16T03:24:32.791Z,1012.87
2019-04-16T03:24:58.921Z,1012.89
2019-04-16T03:25:26.017Z,1012.85
2019-04-16T03:25:53.119Z,1012.86
2019-04-16T03:26:20.330Z,1012.89
2019-04-16T03:26:50.159Z,1012.89
2019-04-16T03:27:15.517Z,1012.87
2019-04-16T03:27:42.645Z,1012.89
2019-04-16T03:28:09.928Z,1012.9
2019-04-16T03:28:37.165Z,1012.89
2019-04-16T03:29:04.284Z,1012.92
2019-04-16T03:29:31.412Z,1012.91
2019-04-16T03:30:02.812Z,1012.86
2019-04-16T03:30:25.781Z,1012.86
2019-04-16T03:30:53.914Z,1012.88
2019-04-16T03:31:23.301Z,1012.9
2019-04-16T03:31:57.260Z,1012.87
2019-04-16T03:32:18.268Z,1012.83
2019-04-16T03:32:46.347Z,1012.85
2019-04-16T03:33:15.696Z,1012.85
2019-04-16T03:33:48.067Z,1012.9
2019-04-16T03:34:08.735Z,1012.83
2019-04-16T03:34:35.858Z,1012.86
2019-04-16T03:35:02.960Z,1012.86
2019-04-16T03:35:30.194Z,1012.86
2019-04-16T03:35:57.777Z,1012.82
2019-04-16T03:36:23.419Z,1012.84
2019-04-16T03:36:50.536Z,1012.83
2019-04-16T03:37:18.626Z,1012.83
2019-04-16T03:37:45.732Z,1012.81
2019-04-16T03:38:12.821Z,1012.79
2019-04-16T03:38:41.974Z,1012.75
2019-04-16T03:39:11.931Z,1012.77
2019-04-16T03:39:33.218Z,1012.75
2019-04-16T03:39:59.354Z,1012.76
2019-04-16T03:40:28.454Z,1012.76
2019-04-16T03:40:56.053Z,1012.73
2019-04-16T03:41:20.721Z,1012.75
2019-04-16T03:41:46.823Z,1012.73
2019-04-16T03:42:14.165Z,1012.72
2019-04-16T03:42:41.271Z,1012.71
2019-04-16T03:43:09.357Z,1012.73
2019-04-16T03:43:36.463Z,1012.7
2019-04-16T03:44:03.880Z,1012.7
2019-04-16T03:44:29.864Z,1012.69
2019-04-16T03:44:56.961Z,1012.64
2019-04-16T03:45:24.061Z,1012.66
2019-04-16T03:45:50.196Z,1012.67
2019-04-16T03:46:17.325Z,1012.65
2019-04-16T03:46:46.510Z,1012.66
2019-04-16T03:47:10.550Z,1012.71
2019-04-16T03:47:37.649Z,1012.65
2019-04-16T03:48:05.143Z,1012.66
2019-04-16T03:48:32.229Z,1012.64
2019-04-16T03:48:59.328Z,1012.64
2019-04-16T03:49:27.611Z,1012.65
2019-04-16T03:49:51.567Z,1012.69
2019-04-16T03:50:18.672Z,1012.65
2019-04-16T03:50:45.776Z,1012.68
2019-04-16T03:51:12.904Z,1012.64
2019-04-16T03:51:39.996Z,1012.69
2019-04-16T03:52:08.352Z,1012.71
2019-04-16T03:52:33.232Z,1012.67
2019-04-16T03:53:01.317Z,1012.66
2019-04-16T03:53:28.877Z,1012.6
2019-04-16T03:53:55.971Z,1012.65
2019-04-16T03:54:23.235Z,1012.64
2019-04-16T03:54:53.699Z,1012.64
2019-04-16T03:55:16.414Z,1012.61
2019-04-16T03:55:43.541Z,1012.62
2019-04-16T03:56:10.937Z,1012.6
2019-04-16T03:56:37.106Z,1012.62
2019-04-16T03:57:03.262Z,1012.61
2019-04-16T03:57:32.592Z,1012.6
2019-04-16T03:57:56.496Z,1012.6
2019-04-16T03:58:23.599Z,1012.61
2019-04-16T03:58:50.689Z,1012.56
2019-04-16T03:59:17.788Z,1012.57
2019-04-16T03:59:44.929Z,1012.59
2019-04-16T04:00:12.939Z,1012.58
2019-04-16T04:00:43.644Z,1012.56
2019-04-16T04:01:06.225Z,1012.59
2019-04-16T04:01:33.320Z,1012.58
2019-04-16T04:02:00.423Z,1012.55
2019-04-16T04:02:28.319Z,1012.57
2019-04-16T04:02:55.511Z,1012.55
2019-04-16T04:03:25.790Z,1012.57
2019-04-16T04:03:48.967Z,1012.55
2019-04-16T04:04:16.069Z,1012.58
2019-04-16T04:04:42.198Z,1012.57
2019-04-16T04:05:09.322Z,1012.56
2019-04-16T04:05:35.786Z,1012.58
2019-04-16T04:06:03.462Z,1012.61
2019-04-16T04:06:29.306Z,1012.58
2019-04-16T04:06:56.425Z,1012.59
2019-04-16T04:07:23.813Z,1012.59
2019-04-16T04:07:50.909Z,1012.61
2019-04-16T04:08:18.332Z,1012.63
2019-04-16T04:08:47.851Z,1012.63
2019-04-16T04:09:12.607Z,1012.58
2019-04-16T04:09:39.726Z,1012.59
2019-04-16T04:10:06.848Z,1012.56
2019-04-16T04:10:36.717Z,1012.58
2019-04-16T04:11:01.090Z,1012.58
2019-04-16T04:11:28.278Z,1012.57
2019-04-16T04:11:54.428Z,1012.58
2019-04-16T04:12:21.544Z,1012.6
2019-04-16T04:12:48.670Z,1012.57
2019-04-16T04:13:18.326Z,1012.6
2019-04-16T04:13:42.556Z,1012.58
2019-04-16T04:14:09.648Z,1012.59
2019-04-16T04:14:36.851Z,1012.62
2019-04-16T04:15:02.983Z,1012.6
2019-04-16T04:15:30.110Z,1012.57
2019-04-16T04:15:58.476Z,1012.6
2019-04-16T04:16:23.383Z,1012.64
2019-04-16T04:16:50.134Z,1012.57
2019-04-16T04:17:16.376Z,1012.59
2019-04-16T04:17:43.469Z,1012.58
2019-04-16T04:18:11.545Z,1012.59
2019-04-16T04:18:36.679Z,1012.59
2019-04-16T04:19:02.814Z,1012.6
2019-04-16T04:19:29.927Z,1012.59
2019-04-16T04:19:57.051Z,1012.65
2019-04-16T04:20:24.760Z,1012.59
2019-04-16T04:20:51.041Z,1012.63
2019-04-16T04:21:20.892Z,1012.65
2019-04-16T04:21:44.174Z,1012.59
2019-04-16T04:22:11.277Z,1012.59
2019-04-16T04:22:38.368Z,1012.65
2019-04-16T04:23:05.467Z,1012.65
2019-04-16T04:23:31.594Z,1012.63
2019-04-16T04:24:00.599Z,1012.65
2019-04-16T04:24:24.809Z,1012.67
2019-04-16T04:24:50.970Z,1012.65
2019-04-16T04:25:17.126Z,1012.63
2019-04-16T04:25:44.237Z,1012.7
2019-04-16T04:26:11.351Z,1012.64
2019-04-16T04:26:40.855Z,1012.65
2019-04-16T04:27:04.605Z,1012.67
2019-04-16T04:27:32.694Z,1012.65
2019-04-16T04:27:59.785Z,1012.63
2019-04-16T04:28:26.881Z,1012.65
2019-04-16T04:28:53.015Z,1012.67
2019-04-16T04:29:20.623Z,1012.68
2019-04-16T04:29:46.627Z,1012.69
2019-04-16T04:30:13.132Z,1012.63
2019-04-16T04:30:40.295Z,1012.69
2019-04-16T04:31:07.451Z,1012.71
2019-04-16T04:31:34.546Z,1012.67
2019-04-16T04:32:03.337Z,1012.7
2019-04-16T04:32:27.793Z,1012.66
2019-04-16T04:32:55.879Z,1012.69
2019-04-16T04:33:22.968Z,1012.74
2019-04-16T04:33:50.071Z,1012.71
2019-04-16T04:34:17.200Z,1012.7
2019-04-16T04:34:45.374Z,1012.68
2019-04-16T04:35:10.531Z,1012.7
2019-04-16T04:35:36.691Z,1012.68
2019-04-16T04:36:02.801Z,1012.68
2019-04-16T04:36:31.102Z,1012.71
2019-04-16T04:36:59.657Z,1012.69
2019-04-16T04:37:23.350Z,1012.78
2019-04-16T04:37:50.443Z,1012.68
2019-04-16T04:38:17.943Z,1012.74
2019-04-16T04:38:44.077Z,1012.72
2019-04-16T04:39:14.864Z,1012.67
2019-04-16T04:39:38.302Z,1012.68
2019-04-16T04:40:05.437Z,1012.65
2019-04-16T04:40:44.083Z,1012.64
2019-04-16T04:41:03.328Z,1012.65
2019-04-16T04:41:30.452Z,1012.67
2019-04-16T04:41:57.552Z,1012.66
2019-04-16T04:42:25.517Z,1012.7
2019-04-16T04:42:51.821Z,1012.64
2019-04-16T04:43:18.644Z,1012.63
2019-04-16T04:43:45.740Z,1012.66
2019-04-16T04:44:12.021Z,1012.64
2019-04-16T04:44:39.107Z,1012.68
2019-04-16T04:45:08.727Z,1012.63
2019-04-16T04:45:33.301Z,1012.64
2019-04-16T04:46:00.399Z,1012.62
2019-04-16T04:46:27.564Z,1012.65
2019-04-16T04:46:53.701Z,1012.68
2019-04-16T04:47:20.793Z,1012.66
2019-04-16T04:47:50.971Z,1012.67
2019-04-16T04:48:15.010Z,1012.65
2019-04-16T04:48:42.108Z,1012.68
2019-04-16T04:49:08.262Z,1012.61
2019-04-16T04:49:35.362Z,1012.63
2019-04-16T04:50:03.288Z,1012.62
2019-04-16T04:50:28.569Z,1012.64
2019-04-16T04:50:55.665Z,1012.61
2019-04-16T04:51:22.790Z,1012.61
2019-04-16T04:51:49.896Z,1012.63
2019-04-16T04:52:16.994Z,1012.61
2019-04-16T04:52:45.718Z,1012.58
2019-04-16T04:53:10.298Z,1012.62
2019-04-16T04:53:37.369Z,1012.64
2019-04-16T04:54:04.467Z,1012.63
2019-04-16T04:54:31.569Z,1012.6
2019-04-16T04:54:58.664Z,1012.68
2019-04-16T04:55:26.803Z,1012.58
2019-04-16T04:55:54.385Z,1012.67
2019-04-16T04:56:20.023Z,1012.6
2019-04-16T04:56:47.127Z,1012.64
2019-04-16T04:57:14.254Z,1012.58
2019-04-16T04:57:41.352Z,1012.63
2019-04-16T04:58:08.534Z,1012.63
2019-04-16T04:58:34.902Z,1012.59
2019-04-16T04:59:02.407Z,1012.63
2019-04-16T04:59:28.325Z,1012.62
2019-04-16T04:59:55.421Z,1012.62
2019-04-16T05:00:22.520Z,1012.65
2019-04-16T05:00:48.645Z,1012.64
2019-04-16T05:01:15.773Z,1012.65
2019-04-16T05:01:42.655Z,1012.64
2019-04-16T05:02:10.486Z,1012.66
2019-04-16T05:02:36.167Z,1012.66
2019-04-16T05:03:03.262Z,1012.66
2019-04-16T05:03:30.558Z,1012.65
2019-04-16T05:03:57.686Z,1012.67
2019-04-16T05:04:24.784Z,1012.65
2019-04-16T05:04:52.343Z,1012.64
2019-04-16T05:05:17.989Z,1012.68
2019-04-16T05:05:45.082Z,1012.68
2019-04-16T05:06:12.183Z,1012.68
2019-04-16T05:06:39.277Z,1012.69
2019-04-16T05:07:07.366Z,1012.67
2019-04-16T05:07:34.616Z,1012.68
2019-04-16T05:08:01.713Z,1012.73
2019-04-16T05:08:28.613Z,1012.7
2019-04-16T05:08:57.529Z,1012.69
2019-04-16T05:09:22.342Z,1012.75
2019-04-16T05:09:49.459Z,1012.71
2019-04-16T05:10:16.558Z,1012.69
2019-04-16T05:10:45.335Z,1012.72
2019-04-16T05:11:15.444Z,1012.72
2019-04-16T05:11:40.546Z,1012.69
2019-04-16T05:12:08.160Z,1012.75
2019-04-16T05:12:35.494Z,1012.74
2019-04-16T05:13:02.592Z,1012.71
2019-04-16T05:13:29.688Z,1012.72
2019-04-16T05:13:56.287Z,1012.72
2019-04-16T05:14:24.889Z,1012.73
2019-04-16T05:14:49.017Z,1012.67
2019-04-16T05:15:15.150Z,1012.71
2019-04-16T05:15:42.247Z,1012.68
2019-04-16T05:16:10.341Z,1012.72
2019-04-16T05:16:37.451Z,1012.68
2019-04-16T05:17:06.399Z,1012.67
2019-04-16T05:17:30.673Z,1012.68
2019-04-16T05:17:57.785Z,1012.67
2019-04-16T05:18:25.863Z,1012.7
2019-04-16T05:18:53.159Z,1012.66
2019-04-16T05:19:20.383Z,1012.66
2019-04-16T05:19:47.426Z,1012.66
2019-04-16T05:20:15.345Z,1012.72
2019-04-16T05:20:40.666Z,1012.71
2019-04-16T05:21:07.761Z,1012.7
2019-04-16T05:21:35.290Z,1012.72
2019-04-16T05:22:02.387Z,1012.7
2019-04-16T05:22:32.664Z,1012.69
2019-04-16T05:22:58.049Z,1012.72
2019-04-16T05:23:25.638Z,1012.7
2019-04-16T05:23:56.731Z,1012.72
2019-04-16T05:24:19.421Z,1012.7
2019-04-16T05:24:47.502Z,1012.72
2019-04-16T05:25:13.652Z,1012.74
2019-04-16T05:25:40.749Z,1012.75
2019-04-16T05:26:09.773Z,1012.76
2019-04-16T05:26:36.443Z,1012.75